Time;durP1;ratioP1;P1;durP2;ratioP2;P2;SDS_P1;SDS_P2;PMS_P1;PMS_P2;Temp;Humidity;BMP_temperature;BMP_pressure;BME280_temperature;BME280_humidity;BME280_pressure;Samples;Min_cycle;Max_cycle;Signal;HPM_P1;HPM_P2
2023/11/25 00:00:49;;;;;;;0.40;0.35;;;3.80;99.90;;;;;;4962418;28;20039;-70
2023/11/25 00:03:15;;;;;;;1.85;0.35;;;3.70;99.90;;;;;;4959856;28;20417;-70
2023/11/25 00:05:41;;;;;;;1.55;0.50;;;3.70;99.90;;;;;;4963284;28;20690;-70
2023/11/25 00:08:07;;;;;;;3.78;0.40;;;3.60;99.90;;;;;;4960639;28;20034;-70
2023/11/25 00:10:34;;;;;;;2.92;0.50;;;3.60;99.90;;;;;;4962213;28;20133;-70
2023/11/25 00:13:01;;;;;;;1.75;0.40;;;3.60;99.90;;;;;;4961751;28;20061;-70
2023/11/25 00:15:27;;;;;;;1.20;0.40;;;3.50;99.90;;;;;;4962107;28;20355;-70
2023/11/25 00:17:54;;;;;;;1.42;0.60;;;3.50;99.90;;;;;;4961540;28;20095;-70
2023/11/25 00:20:21;;;;;;;0.80;0.40;;;3.50;99.90;;;;;;4962554;28;20589;-70
2023/11/25 00:22:46;;;;;;;0.75;0.47;;;3.40;99.90;;;;;;4960474;28;20038;-70
2023/11/25 00:25:13;;;;;;;0.98;0.32;;;3.40;99.90;;;;;;4962562;28;20031;-70
2023/11/25 00:27:39;;;;;;;1.00;0.40;;;3.40;99.90;;;;;;4959763;28;20042;-70
2023/11/25 00:30:06;;;;;;;1.05;0.40;;;3.30;99.90;;;;;;4944421;28;20026;-70
2023/11/25 00:32:37;;;;;;;0.95;0.50;;;3.30;99.90;;;;;;4942160;28;20090;-70
2023/11/25 00:35:14;;;;;;;1.20;0.40;;;3.30;99.90;;;;;;4965070;28;20045;-70
2023/11/25 00:37:40;;;;;;;1.48;0.40;;;3.30;99.90;;;;;;4959530;28;20090;-70
2023/11/25 00:40:10;;;;;;;3.25;0.43;;;3.20;99.90;;;;;;4963499;28;20077;-70
2023/11/25 00:42:39;;;;;;;1.98;0.30;;;3.20;99.90;;;;;;4960300;28;20042;-70
2023/11/25 00:45:07;;;;;;;0.85;0.35;;;3.20;99.90;;;;;;4962969;28;20026;-70
2023/11/25 00:47:34;;;;;;;3.60;1.08;;;3.20;99.90;;;;;;4960323;28;20050;-70
2023/11/25 00:50:01;;;;;;;1.15;0.30;;;3.20;99.90;;;;;;4966290;28;20047;-70
2023/11/25 00:52:27;;;;;;;1.70;0.30;;;3.10;99.90;;;;;;4943047;28;20038;-70
2023/11/25 00:54:53;;;;;;;0.82;0.30;;;3.10;99.90;;;;;;4962537;28;20045;-70
2023/11/25 00:57:19;;;;;;;0.70;0.40;;;3.10;99.90;;;;;;4944431;28;20035;-70
2023/11/25 00:59:45;;;;;;;1.48;0.30;;;3.10;99.90;;;;;;4943912;28;20069;-70
2023/11/25 01:02:11;;;;;;;0.35;0.35;;;3.10;99.90;;;;;;4963072;28;20465;-70
2023/11/25 01:04:40;;;;;;;1.58;0.30;;;3.10;99.90;;;;;;4966295;28;20038;-70
2023/11/25 01:07:06;;;;;;;0.43;0.22;;;3.10;99.90;;;;;;4963403;28;20034;-70
2023/11/25 01:09:34;;;;;;;2.08;0.30;;;3.10;99.90;;;;;;4959633;28;20035;-70
2023/11/25 01:12:00;;;;;;;1.98;0.28;;;3.10;99.90;;;;;;4963691;28;20066;-70
2023/11/25 01:14:27;;;;;;;0.73;0.35;;;3.10;99.90;;;;;;4943061;28;20047;-70
2023/11/25 01:16:53;;;;;;;1.25;0.20;;;3.00;99.90;;;;;;4963305;28;20114;-69
2023/11/25 01:19:19;;;;;;;1.50;0.60;;;3.00;99.90;;;;;;4957603;28;20027;-70
2023/11/25 01:21:45;;;;;;;1.02;0.40;;;3.00;99.90;;;;;;4962804;28;20035;-70
2023/11/25 01:24:11;;;;;;;1.00;0.50;;;3.10;99.90;;;;;;4957903;28;20129;-70
2023/11/25 01:26:40;;;;;;;2.17;0.50;;;3.10;99.90;;;;;;4959974;28;20542;-70
2023/11/25 01:29:06;;;;;;;3.45;0.47;;;3.20;99.90;;;;;;4959499;28;20624;-70
2023/11/25 01:31:33;;;;;;;1.50;0.52;;;3.30;99.90;;;;;;4960873;28;20050;-70
2023/11/25 01:33:59;;;;;;;1.75;0.28;;;3.40;99.90;;;;;;4949406;28;20030;-70
2023/11/25 01:36:26;;;;;;;3.03;0.40;;;3.50;99.90;;;;;;4942753;28;20042;-70
2023/11/25 01:38:52;;;;;;;0.40;0.28;;;3.60;99.90;;;;;;4960441;28;20045;-70
2023/11/25 01:41:18;;;;;;;2.63;1.23;;;3.60;99.90;;;;;;4961471;28;20029;-70
2023/11/25 01:43:44;;;;;;;1.65;0.65;;;3.60;99.90;;;;;;4959622;28;20027;-70
2023/11/25 01:46:18;;;;;;;0.85;0.40;;;3.60;99.90;;;;;;4962443;28;20415;-69
2023/11/25 01:48:44;;;;;;;1.27;0.73;;;3.60;99.90;;;;;;4960576;28;20093;-70
2023/11/25 01:51:10;;;;;;;2.58;0.80;;;3.70;99.90;;;;;;4949165;28;20510;-70
2023/11/25 01:53:38;;;;;;;1.33;0.60;;;3.60;99.90;;;;;;4957326;28;20035;-71
2023/11/25 01:56:05;;;;;;;1.75;0.45;;;3.70;99.90;;;;;;4943746;28;20039;-70
2023/11/25 01:58:32;;;;;;;1.17;0.50;;;3.70;99.90;;;;;;4941505;28;20119;-70
2023/11/25 02:00:58;;;;;;;0.95;0.40;;;3.80;99.90;;;;;;4945347;28;20506;-70
2023/11/25 02:03:25;;;;;;;1.85;0.43;;;3.80;99.90;;;;;;4942534;28;20058;-70
2023/11/25 02:05:52;;;;;;;2.03;0.57;;;3.90;99.90;;;;;;4943508;28;20034;-69
2023/11/25 02:08:20;;;;;;;6.22;1.20;;;3.90;99.90;;;;;;4958973;28;20022;-70
2023/11/25 02:10:46;;;;;;;1.02;0.50;;;3.90;99.90;;;;;;4946779;28;20035;-70
2023/11/25 02:13:12;;;;;;;2.22;0.47;;;3.90;99.90;;;;;;4945489;28;20547;-70
2023/11/25 02:15:41;;;;;;;2.78;0.73;;;3.90;99.90;;;;;;4944305;28;20069;-70
2023/11/25 02:18:07;;;;;;;1.60;0.68;;;4.00;99.90;;;;;;4944098;28;20034;-71
2023/11/25 02:20:40;;;;;;;2.58;0.55;;;4.00;99.90;;;;;;4958744;28;20038;-70
2023/11/25 02:23:23;;;;;;;4.78;0.75;;;4.00;99.90;;;;;;4944873;28;20495;-70
2023/11/25 02:25:52;;;;;;;2.72;0.50;;;4.00;99.90;;;;;;4960831;28;20050;-70
2023/11/25 02:28:21;;;;;;;1.23;0.65;;;4.10;99.90;;;;;;4962769;28;20018;-70
2023/11/25 02:30:48;;;;;;;3.42;0.80;;;4.10;99.90;;;;;;4947034;28;20407;-70
2023/11/25 02:33:14;;;;;;;3.63;0.73;;;4.10;99.90;;;;;;4961816;28;20487;-70
2023/11/25 02:35:46;;;;;;;3.30;0.57;;;4.10;99.90;;;;;;4956245;28;20472;-71
2023/11/25 02:38:13;;;;;;;4.78;1.00;;;4.10;99.90;;;;;;4961625;28;20030;-70
2023/11/25 02:40:43;;;;;;;2.97;1.00;;;4.20;99.90;;;;;;4956351;28;20711;-70
2023/11/25 02:43:11;;;;;;;3.75;1.00;;;4.20;99.90;;;;;;4962521;28;20094;-70
2023/11/25 02:45:38;;;;;;;1.98;0.57;;;4.10;99.90;;;;;;4945458;28;20042;-70
2023/11/25 02:48:04;;;;;;;6.10;0.80;;;4.10;99.90;;;;;;4962531;28;20031;-70
2023/11/25 02:50:30;;;;;;;4.78;0.85;;;4.00;99.90;;;;;;4955999;28;20032;-70
2023/11/25 02:52:56;;;;;;;3.78;1.08;;;3.90;99.90;;;;;;4962258;28;20034;-70
2023/11/25 02:55:22;;;;;;;4.22;0.63;;;3.90;99.90;;;;;;4956163;28;20110;-70
2023/11/25 02:57:48;;;;;;;3.05;0.70;;;3.90;99.90;;;;;;4961823;28;20130;-70
2023/11/25 03:00:27;;;;;;;3.40;0.90;;;4.00;99.90;;;;;;4943327;28;20054;-70
2023/11/25 03:03:07;;;;;;;2.78;0.95;;;4.00;99.90;;;;;;4966095;28;20058;-70
2023/11/25 03:05:37;;;;;;;6.97;0.82;;;4.00;99.90;;;;;;4942373;28;20145;-70
2023/11/25 03:08:04;;;;;;;4.82;1.60;;;4.00;99.90;;;;;;4950733;28;20042;-70
2023/11/25 03:10:30;;;;;;;1.90;0.63;;;4.10;99.90;;;;;;4944319;28;20039;-70
2023/11/25 03:12:56;;;;;;;4.32;0.80;;;4.10;99.90;;;;;;4948820;28;20078;-70
2023/11/25 03:15:22;;;;;;;2.00;0.70;;;4.10;99.90;;;;;;4960851;28;20031;-71
2023/11/25 03:17:48;;;;;;;6.57;1.15;;;4.10;99.90;;;;;;4965812;28;20043;-70
2023/11/25 03:20:13;;;;;;;3.42;0.88;;;4.10;99.90;;;;;;4961901;28;20034;-70
2023/11/25 03:22:39;;;;;;;5.53;0.77;;;4.10;99.90;;;;;;4948574;28;20058;-70
2023/11/25 03:25:06;;;;;;;6.07;0.85;;;4.20;99.90;;;;;;4945619;28;20101;-70
2023/11/25 03:27:32;;;;;;;4.40;1.05;;;4.20;99.90;;;;;;4945978;28;20126;-70
2023/11/25 03:29:58;;;;;;;6.60;0.80;;;4.30;99.90;;;;;;4966139;28;20542;-70
2023/11/25 03:32:25;;;;;;;3.25;0.70;;;4.30;99.90;;;;;;4946220;28;20399;-70
2023/11/25 03:34:55;;;;;;;5.03;0.98;;;4.20;99.90;;;;;;4962882;28;20711;-70
2023/11/25 03:37:22;;;;;;;3.30;0.82;;;4.30;99.90;;;;;;4964269;28;20502;-70
2023/11/25 03:39:50;;;;;;;1.27;0.77;;;4.30;99.90;;;;;;4962383;28;20118;-70
2023/11/25 03:42:19;;;;;;;2.83;0.85;;;4.30;99.90;;;;;;4947014;28;20018;-70
2023/11/25 03:44:48;;;;;;;2.17;0.85;;;4.40;99.90;;;;;;4962549;28;20094;-70
2023/11/25 03:47:14;;;;;;;2.90;0.75;;;4.30;99.90;;;;;;4964066;28;20113;-70
2023/11/25 03:49:40;;;;;;;4.43;0.80;;;4.30;99.90;;;;;;4944435;28;20035;-70
2023/11/25 03:52:06;;;;;;;3.65;1.33;;;4.40;99.90;;;;;;4946812;28;20035;-70
2023/11/25 03:54:35;;;;;;;3.22;0.88;;;4.40;99.90;;;;;;4948378;28;20054;-70
2023/11/25 03:57:01;;;;;;;2.90;0.73;;;4.40;99.90;;;;;;4950812;28;20035;-70
2023/11/25 03:59:28;;;;;;;4.80;1.10;;;4.40;99.90;;;;;;4948911;28;20050;-70
2023/11/25 04:01:54;;;;;;;4.22;0.80;;;4.50;99.90;;;;;;4961117;28;20035;-70
2023/11/25 04:04:19;;;;;;;1.70;0.70;;;4.50;99.90;;;;;;4961824;28;20026;-70
2023/11/25 04:06:47;;;;;;;1.80;0.70;;;4.50;99.90;;;;;;4942512;28;20039;-70
2023/11/25 04:09:13;;;;;;;1.95;0.93;;;4.40;99.90;;;;;;4964923;28;20042;-70
2023/11/25 04:11:42;;;;;;;2.65;0.70;;;4.40;99.90;;;;;;4941608;28;20034;-70
2023/11/25 04:14:09;;;;;;;4.45;1.02;;;4.50;99.90;;;;;;4963598;28;20538;-70
2023/11/25 04:16:34;;;;;;;3.90;0.77;;;4.50;99.90;;;;;;4958205;28;20388;-69
2023/11/25 04:19:02;;;;;;;5.38;0.75;;;4.50;99.90;;;;;;4964947;28;20466;-70
2023/11/25 04:21:29;;;;;;;4.32;0.90;;;4.50;99.90;;;;;;4940935;28;20132;-70
2023/11/25 04:23:55;;;;;;;3.05;0.70;;;4.50;99.90;;;;;;4965326;28;20035;-70
2023/11/25 04:26:22;;;;;;;2.72;0.70;;;4.50;99.90;;;;;;4959333;28;20027;-69
2023/11/25 04:28:48;;;;;;;5.05;0.82;;;4.50;99.90;;;;;;4964748;28;20078;-70
2023/11/25 04:31:14;;;;;;;3.50;0.90;;;4.50;99.90;;;;;;4960649;28;20490;-71
2023/11/25 04:33:41;;;;;;;4.90;0.88;;;4.50;99.90;;;;;;4963501;28;20035;-70
2023/11/25 04:36:07;;;;;;;1.55;0.82;;;4.50;99.90;;;;;;4961655;28;20035;-70
2023/11/25 04:38:33;;;;;;;5.00;1.10;;;4.50;99.90;;;;;;4962321;28;20043;-70
2023/11/25 04:40:59;;;;;;;5.47;0.75;;;4.60;99.90;;;;;;4962069;28;20443;-70
2023/11/25 04:43:25;;;;;;;4.40;0.77;;;4.60;99.90;;;;;;4962338;28;20034;-70
2023/11/25 04:45:52;;;;;;;7.15;1.20;;;4.60;99.90;;;;;;4943432;28;20036;-70
2023/11/25 04:48:19;;;;;;;4.28;0.70;;;4.60;99.90;;;;;;4963298;28;20125;-70
2023/11/25 04:50:46;;;;;;;5.75;1.42;;;4.60;99.90;;;;;;4961058;28;20031;-70
2023/11/25 04:53:12;;;;;;;3.83;0.73;;;4.60;99.90;;;;;;4963286;28;20490;-70
2023/11/25 04:55:38;;;;;;;4.90;1.27;;;4.60;99.90;;;;;;4960125;28;20062;-69
2023/11/25 04:58:04;;;;;;;5.38;1.20;;;4.50;99.90;;;;;;4962945;28;20035;-70
2023/11/25 05:00:30;;;;;;;4.15;0.82;;;4.50;99.90;;;;;;4960720;28;20090;-70
2023/11/25 05:02:56;;;;;;;2.83;0.80;;;4.50;99.90;;;;;;4962696;28;20046;-70
2023/11/25 05:05:23;;;;;;;6.07;0.98;;;4.50;99.90;;;;;;4961617;28;20042;-70
2023/11/25 05:07:49;;;;;;;3.60;0.85;;;4.40;99.90;;;;;;4961556;28;20042;-70
2023/11/25 05:10:16;;;;;;;1.45;0.57;;;4.40;99.90;;;;;;4963023;28;20034;-70
2023/11/25 05:12:44;;;;;;;3.47;0.70;;;4.40;99.90;;;;;;4957628;28;20035;-70
2023/11/25 05:15:11;;;;;;;4.90;1.50;;;4.40;99.90;;;;;;4964872;28;20303;-70
2023/11/25 05:17:40;;;;;;;3.38;0.55;;;4.30;99.90;;;;;;4957388;28;20034;-70
2023/11/25 05:20:10;;;;;;;2.05;0.80;;;4.40;99.90;;;;;;4963830;28;20037;-70
2023/11/25 05:22:36;;;;;;;3.08;1.05;;;4.40;99.90;;;;;;4956813;28;20496;-70
2023/11/25 05:25:02;;;;;;;4.57;0.68;;;4.40;99.90;;;;;;4963497;28;20027;-70
2023/11/25 05:27:28;;;;;;;3.10;0.68;;;4.40;99.90;;;;;;4957444;28;20043;-70
2023/11/25 05:29:54;;;;;;;6.93;1.10;;;4.40;99.90;;;;;;4963765;28;20045;-70
2023/11/25 05:32:20;;;;;;;3.15;0.75;;;4.30;99.90;;;;;;4960473;28;20042;-70
2023/11/25 05:34:45;;;;;;;2.75;0.70;;;4.20;99.90;;;;;;4962803;28;20031;-70
2023/11/25 05:37:13;;;;;;;1.98;0.60;;;4.10;99.90;;;;;;4958090;28;20519;-70
2023/11/25 05:39:40;;;;;;;5.15;0.90;;;4.00;99.90;;;;;;4961372;28;20066;-70
2023/11/25 05:42:07;;;;;;;2.08;0.95;;;4.00;99.90;;;;;;4960214;28;20035;-70
2023/11/25 05:44:33;;;;;;;2.63;0.82;;;3.90;99.90;;;;;;4960881;28;20841;-70
2023/11/25 05:46:59;;;;;;;4.32;0.98;;;3.80;99.90;;;;;;4960690;28;20031;-70
2023/11/25 05:49:25;;;;;;;6.20;1.00;;;3.80;99.90;;;;;;4961167;28;20030;-70
2023/11/25 05:51:51;;;;;;;4.45;0.85;;;3.80;99.90;;;;;;4959926;28;20151;-71
2023/11/25 05:54:18;;;;;;;5.50;1.00;;;3.80;99.90;;;;;;4961662;28;20081;-70
2023/11/25 05:56:48;;;;;;;3.90;1.02;;;3.80;99.90;;;;;;4958529;28;20035;-69
2023/11/25 05:59:16;;;;;;;2.53;0.80;;;3.80;99.90;;;;;;4961865;28;20034;-70
2023/11/25 06:01:42;;;;;;;2.03;0.60;;;3.90;99.90;;;;;;4959005;28;20042;-70
2023/11/25 06:04:09;;;;;;;5.05;0.85;;;3.90;99.90;;;;;;4961867;28;20043;-70
2023/11/25 06:06:35;;;;;;;3.72;0.80;;;3.90;99.90;;;;;;4959182;28;20436;-71
2023/11/25 06:09:01;;;;;;;2.97;0.90;;;4.00;99.90;;;;;;4962250;28;20030;-65
2023/11/25 06:11:33;;;;;;;4.57;0.90;;;4.10;99.90;;;;;;4960019;28;20058;-65
2023/11/25 06:13:59;;;;;;;2.88;1.30;;;4.10;99.90;;;;;;4961689;28;20038;-65
2023/11/25 06:16:25;;;;;;;6.70;1.65;;;4.20;99.90;;;;;;4960012;28;20065;-65
2023/11/25 06:18:52;;;;;;;4.63;1.33;;;4.20;99.90;;;;;;4960905;28;20035;-65
2023/11/25 06:21:19;;;;;;;1.15;0.50;;;4.10;99.90;;;;;;4962891;28;20034;-65
2023/11/25 06:23:45;;;;;;;1.25;0.60;;;4.20;99.90;;;;;;4959997;28;20030;-65
2023/11/25 06:26:12;;;;;;;6.05;0.93;;;4.20;99.90;;;;;;4962208;28;20423;-65
2023/11/25 06:28:42;;;;;;;8.90;1.13;;;4.10;99.90;;;;;;4959125;28;20042;-66
2023/11/25 06:31:17;;;;;;;6.43;0.73;;;4.10;99.90;;;;;;4962332;28;20030;-65
2023/11/25 06:33:45;;;;;;;3.90;0.95;;;4.10;99.90;;;;;;4956524;28;20078;-65
2023/11/25 06:36:11;;;;;;;2.42;0.95;;;4.10;99.90;;;;;;4961947;28;20080;-65
2023/11/25 06:38:37;;;;;;;4.68;0.68;;;4.10;99.90;;;;;;4955993;28;20070;-65
2023/11/25 06:41:03;;;;;;;1.85;0.85;;;4.10;99.90;;;;;;4962796;28;20050;-65
2023/11/25 06:43:29;;;;;;;2.28;1.20;;;4.10;99.90;;;;;;4956079;28;20403;-66
2023/11/25 06:45:56;;;;;;;6.43;1.58;;;4.10;99.90;;;;;;4961464;28;20867;-65
2023/11/25 06:48:25;;;;;;;1.60;0.68;;;4.00;99.90;;;;;;4956378;28;20114;-65
2023/11/25 06:50:54;;;;;;;3.67;0.75;;;4.00;99.90;;;;;;4962524;28;20038;-65
2023/11/25 06:53:20;;;;;;;3.72;0.82;;;4.00;99.90;;;;;;4955797;28;20447;-65
2023/11/25 06:55:46;;;;;;;5.00;1.02;;;4.00;99.90;;;;;;4959460;28;20035;-65
2023/11/25 06:58:13;;;;;;;1.33;0.60;;;4.00;99.90;;;;;;4956832;28;20125;-66
2023/11/25 07:00:39;;;;;;;2.33;0.50;;;4.10;99.90;;;;;;4960355;28;20508;-65
2023/11/25 07:03:06;;;;;;;2.33;0.80;;;4.00;99.90;;;;;;4959604;28;20661;-65
2023/11/25 07:05:32;;;;;;;7.28;1.23;;;4.00;99.90;;;;;;4962211;28;20656;-65
2023/11/25 07:07:58;;;;;;;2.13;1.08;;;4.00;99.90;;;;;;4959857;28;20411;-66
2023/11/25 07:10:24;;;;;;;3.67;0.70;;;4.00;99.90;;;;;;4959900;28;20031;-65
2023/11/25 07:12:50;;;;;;;5.80;1.33;;;4.10;99.90;;;;;;4958801;28;20062;-66
2023/11/25 07:15:16;;;;;;;4.07;1.10;;;4.00;99.90;;;;;;4960574;28;20122;-65
2023/11/25 07:17:43;;;;;;;2.67;0.80;;;4.00;99.90;;;;;;4958217;28;20034;-65
2023/11/25 07:20:13;;;;;;;2.72;0.90;;;4.00;99.90;;;;;;4961161;28;20110;-65
2023/11/25 07:22:40;;;;;;;2.45;0.77;;;4.00;99.90;;;;;;4957933;28;20070;-65
2023/11/25 07:25:11;;;;;;;6.97;1.08;;;4.00;99.90;;;;;;4960723;28;20088;-65
2023/11/25 07:27:38;;;;;;;3.80;0.70;;;4.00;99.90;;;;;;4958065;28;20035;-65
2023/11/25 07:30:06;;;;;;;5.18;0.80;;;4.00;99.90;;;;;;4961071;28;20038;-66
2023/11/25 07:32:32;;;;;;;3.58;0.82;;;4.00;99.90;;;;;;4958406;28;20078;-65
2023/11/25 07:34:58;;;;;;;2.08;0.52;;;4.00;99.90;;;;;;4960671;28;20047;-65
2023/11/25 07:37:24;;;;;;;7.60;0.77;;;3.90;99.90;;;;;;4959968;28;20026;-65
2023/11/25 07:39:50;;;;;;;2.60;0.85;;;3.90;99.90;;;;;;4959659;28;20039;-65
2023/11/25 07:42:15;;;;;;;1.55;0.40;;;3.80;99.90;;;;;;4960413;28;20062;-65
2023/11/25 07:44:42;;;;;;;2.03;0.80;;;3.80;99.90;;;;;;4958874;28;20046;-65
2023/11/25 07:47:08;;;;;;;2.33;0.90;;;3.70;99.90;;;;;;4964097;28;20061;-65
2023/11/25 07:49:34;;;;;;;4.53;1.00;;;3.70;99.90;;;;;;4961217;28;20047;-66
2023/11/25 07:52:00;;;;;;;6.70;1.77;;;3.80;99.90;;;;;;4965300;28;20038;-65
2023/11/25 07:54:26;;;;;;;1.10;0.60;;;3.80;99.90;;;;;;4958522;28;20062;-65
2023/11/25 07:56:52;;;;;;;2.15;0.75;;;4.00;99.90;;;;;;4964290;28;20043;-65
2023/11/25 07:59:18;;;;;;;4.03;0.93;;;4.20;99.90;;;;;;4959599;28;20131;-65
2023/11/25 08:01:45;;;;;;;2.42;0.82;;;4.40;99.90;;;;;;4963923;28;20071;-65
2023/11/25 08:04:10;;;;;;;4.43;0.85;;;4.50;99.90;;;;;;4960977;28;20023;-66
2023/11/25 08:06:37;;;;;;;1.88;0.95;;;4.70;99.90;;;;;;4963015;28;20411;-65
2023/11/25 08:09:02;;;;;;;4.95;0.88;;;4.70;99.90;;;;;;4962054;28;20058;-65
2023/11/25 08:11:29;;;;;;;0.73;0.52;;;4.80;99.90;;;;;;4962505;28;20214;-65
2023/11/25 08:13:55;;;;;;;6.57;0.73;;;4.80;99.90;;;;;;4961955;28;20077;-65
2023/11/25 08:16:21;;;;;;;2.58;0.70;;;4.90;99.90;;;;;;4962698;28;20077;-66
2023/11/25 08:18:47;;;;;;;1.33;0.82;;;4.90;99.90;;;;;;4961365;28;20515;-66
2023/11/25 08:21:14;;;;;;;3.55;0.90;;;5.00;99.90;;;;;;4963859;28;20033;-66
2023/11/25 08:23:43;;;;;;;2.38;0.60;;;5.00;99.90;;;;;;4960645;28;20056;-65
2023/11/25 08:26:29;;;;;;;5.43;1.13;;;5.10;99.90;;;;;;4963075;28;20077;-65
2023/11/25 08:28:55;;;;;;;3.72;0.98;;;5.10;99.90;;;;;;4962146;28;20085;-66
2023/11/25 08:31:22;;;;;;;3.88;0.60;;;5.20;99.90;;;;;;4962739;28;20066;-65
2023/11/25 08:33:48;;;;;;;6.38;0.88;;;5.30;99.90;;;;;;4960983;28;20043;-66
2023/11/25 08:36:17;;;;;;;2.60;0.50;;;5.40;99.90;;;;;;4963394;28;20030;-66
2023/11/25 08:38:43;;;;;;;3.92;0.70;;;5.40;99.90;;;;;;4960639;28;20121;-65
2023/11/25 08:41:09;;;;;;;5.22;0.88;;;5.40;99.90;;;;;;4963473;28;20039;-66
2023/11/25 08:43:40;;;;;;;2.42;0.70;;;5.40;99.90;;;;;;4960659;28;20039;-66
2023/11/25 08:46:06;;;;;;;2.55;0.75;;;5.50;99.90;;;;;;4963368;28;20538;-66
2023/11/25 08:48:32;;;;;;;8.05;1.17;;;5.50;99.90;;;;;;4960746;28;20086;-66
2023/11/25 08:50:58;;;;;;;6.88;1.13;;;5.60;99.90;;;;;;4963292;28;20034;-66
2023/11/25 08:53:24;;;;;;;3.08;0.35;;;5.60;99.90;;;;;;4961557;28;20483;-66
2023/11/25 08:55:50;;;;;;;8.75;1.33;;;5.60;99.90;;;;;;4961759;28;20094;-65
2023/11/25 08:58:16;;;;;;;7.97;1.33;;;5.70;99.90;;;;;;4952162;28;20487;-63
2023/11/25 09:00:43;;;;;;;4.78;0.57;;;6.00;99.90;;;;;;4961183;28;20050;-66
2023/11/25 09:03:14;;;;;;;1.52;0.75;;;6.20;99.90;;;;;;4963869;28;20030;-66
2023/11/25 09:05:40;;;;;;;3.53;0.82;;;6.90;99.90;;;;;;4960349;28;20081;-65
2023/11/25 09:08:10;;;;;;;3.80;0.98;;;7.80;99.10;;;;;;4965779;28;20030;-66
2023/11/25 09:10:36;;;;;;;4.50;1.60;;;8.50;97.70;;;;;;4956595;28;20150;-66
2023/11/25 09:13:04;;;;;;;7.20;1.20;;;9.20;97.00;;;;;;4963174;28;20030;-64
2023/11/25 09:15:30;;;;;;;7.75;1.10;;;9.80;95.70;;;;;;4956271;28;20122;-66
2023/11/25 09:17:56;;;;;;;3.90;0.90;;;9.80;94.60;;;;;;4963899;28;20125;-67
2023/11/25 09:20:22;;;;;;;2.95;1.00;;;9.50;95.00;;;;;;4957511;28;20057;-66
2023/11/25 09:22:49;;;;;;;3.78;1.15;;;9.00;95.70;;;;;;4963139;28;20031;-65
2023/11/25 09:25:15;;;;;;;5.07;1.17;;;8.60;95.90;;;;;;4958270;28;20042;-66
2023/11/25 09:27:44;;;;;;;3.50;1.02;;;8.20;96.60;;;;;;4949774;28;20035;-66
2023/11/25 09:30:12;;;;;;;3.53;0.98;;;7.80;97.10;;;;;;4958855;28;20035;-70
2023/11/25 09:32:46;;;;;;;2.60;0.70;;;7.50;97.80;;;;;;4961742;28;20035;-71
2023/11/25 09:35:13;;;;;;;9.25;2.75;;;7.30;98.40;;;;;;4961628;28;20030;-70
2023/11/25 09:37:43;;;;;;;7.28;2.08;;;7.10;99.00;;;;;;4961892;28;20054;-69
2023/11/25 09:40:15;;;;;;;7.40;1.40;;;7.00;99.30;;;;;;4960146;28;20031;-70
2023/11/25 09:42:43;;;;;;;5.97;1.38;;;7.00;99.70;;;;;;4961746;28;20046;-71
2023/11/25 09:45:14;;;;;;;4.40;1.55;;;6.90;99.90;;;;;;4959578;28;20019;-70
2023/11/25 09:47:45;;;;;;;9.98;1.55;;;6.90;99.90;;;;;;4959827;28;20144;-70
2023/11/25 09:50:12;;;;;;;2.10;1.20;;;6.80;99.90;;;;;;4961833;28;20038;-70
2023/11/25 09:52:56;;;;;;;1.60;1.05;;;6.80;99.90;;;;;;4961429;28;20039;-70
2023/11/25 09:55:22;;;;;;;4.80;1.48;;;6.70;99.90;;;;;;4958255;28;20042;-71
2023/11/25 09:57:53;;;;;;;4.40;1.20;;;6.60;99.80;;;;;;4962019;28;20034;-70
2023/11/25 10:00:21;;;;;;;4.03;1.38;;;6.60;99.90;;;;;;4958634;28;20030;-71
2023/11/25 10:02:54;;;;;;;4.65;1.15;;;6.50;99.90;;;;;;4962556;28;20031;-70
2023/11/25 10:05:20;;;;;;;3.20;1.17;;;6.50;99.90;;;;;;4961501;28;20089;-67
2023/11/25 10:07:46;;;;;;;9.18;1.77;;;6.50;99.90;;;;;;4962845;28;20086;-66
2023/11/25 10:10:13;;;;;;;5.63;1.63;;;6.50;99.90;;;;;;4958205;28;20490;-66
2023/11/25 10:12:42;;;;;;;2.78;1.10;;;6.50;99.90;;;;;;4961244;28;20076;-66
2023/11/25 10:15:10;;;;;;;11.93;3.42;;;6.50;99.90;;;;;;4959761;28;20049;-65
2023/11/25 10:17:37;;;;;;;9.35;3.83;;;6.60;99.90;;;;;;4960340;28;20702;-65
2023/11/25 10:20:09;;;;;;;9.35;4.15;;;6.50;99.90;;;;;;4947987;28;20031;-65
2023/11/25 10:22:48;;;;;;;9.20;3.58;;;6.20;99.90;;;;;;4961118;28;20053;-66
2023/11/25 10:25:17;;;;;;;8.88;2.60;;;5.90;99.90;;;;;;4958068;28;20023;-67
2023/11/25 10:27:44;;;;;;;7.43;2.65;;;5.80;99.90;;;;;;4960945;28;20035;-67
2023/11/25 10:30:14;;;;;;;6.15;3.40;;;5.80;99.90;;;;;;4960234;28;20030;-66
2023/11/25 10:32:40;;;;;;;6.55;2.38;;;5.70;99.90;;;;;;4958692;28;20035;-67
2023/11/25 10:35:08;;;;;;;4.80;3.17;;;5.70;99.90;;;;;;4959848;28;20046;-66
2023/11/25 10:37:35;;;;;;;5.93;2.17;;;5.50;99.90;;;;;;4957291;28;20049;-66
2023/11/25 10:40:01;;;;;;;5.13;2.65;;;5.40;99.90;;;;;;4961081;28;20101;-66
2023/11/25 10:42:29;;;;;;;6.05;2.60;;;5.20;99.90;;;;;;4957344;28;20027;-66
2023/11/25 10:44:55;;;;;;;8.32;2.38;;;5.10;99.90;;;;;;4960784;28;20035;-67
2023/11/25 10:47:32;;;;;;;5.38;1.77;;;5.00;99.90;;;;;;4958154;28;20026;-66
2023/11/25 10:50:01;;;;;;;3.58;1.70;;;5.00;99.90;;;;;;4958220;28;20030;-66
2023/11/25 10:52:32;;;;;;;5.35;1.65;;;4.90;99.90;;;;;;4957325;28;20043;-66
2023/11/25 10:54:59;;;;;;;6.90;1.45;;;4.90;99.90;;;;;;4960412;28;20035;-66
2023/11/25 10:57:26;;;;;;;2.22;1.52;;;4.90;99.90;;;;;;4957180;28;20089;-66
2023/11/25 10:59:59;;;;;;;3.45;1.65;;;4.80;99.90;;;;;;4962176;28;20037;-66
2023/11/25 11:02:29;;;;;;;4.50;2.13;;;4.70;99.90;;;;;;4961376;28;20041;-66
2023/11/25 11:05:02;;;;;;;10.02;1.92;;;4.60;99.90;;;;;;4960215;28;20027;-66
2023/11/25 11:07:30;;;;;;;11.40;2.78;;;4.60;99.90;;;;;;4957732;28;20031;-66
2023/11/25 11:10:01;;;;;;;5.13;2.47;;;4.60;99.90;;;;;;4960712;28;20108;-66
2023/11/25 11:12:48;;;;;;;5.90;1.80;;;4.70;99.90;;;;;;4957190;28;20070;-66
2023/11/25 11:15:15;;;;;;;3.55;1.58;;;4.70;99.90;;;;;;4959492;28;20031;-66
2023/11/25 11:18:06;;;;;;;2.95;1.48;;;4.70;99.90;;;;;;4957690;28;20113;-66
2023/11/25 11:20:41;;;;;;;7.50;1.90;;;4.70;99.90;;;;;;4958690;28;20050;-66
2023/11/25 11:23:07;;;;;;;5.22;1.50;;;4.80;99.90;;;;;;4964857;28;20039;-65
2023/11/25 11:26:00;;;;;;;8.30;1.90;;;4.80;99.90;;;;;;4961424;28;20070;-65
2023/11/25 11:28:43;;;;;;;4.15;1.38;;;4.80;99.90;;;;;;4967349;28;20042;-65
2023/11/25 11:31:10;;;;;;;4.18;2.17;;;4.80;99.90;;;;;;4962497;28;20114;-65
2023/11/25 11:33:36;;;;;;;8.77;4.38;;;4.80;99.90;;;;;;4962986;28;20023;-66
2023/11/25 11:36:05;;;;;;;14.05;6.10;;;4.80;99.90;;;;;;4963369;28;20031;-67
2023/11/25 11:38:32;;;;;;;6.15;2.58;;;4.90;99.90;;;;;;4962723;28;20676;-65
2023/11/25 11:41:21;;;;;;;5.13;1.70;;;4.90;99.90;;;;;;4960862;28;20073;-65
2023/11/25 11:44:06;;;;;;;4.60;1.30;;;4.90;99.90;;;;;;4964825;28;20062;-65
2023/11/25 11:46:41;;;;;;;7.93;1.85;;;4.90;99.90;;;;;;4960710;28;20031;-65
2023/11/25 11:49:14;;;;;;;4.67;2.37;;;4.90;99.90;;;;;;4963159;28;20042;-65
2023/11/25 11:52:02;;;;;;;4.72;1.63;;;4.90;99.90;;;;;;4959539;28;20291;-65
2023/11/25 11:54:28;;;;;;;20.20;9.32;;;4.90;99.90;;;;;;4943255;28;20038;-65
2023/11/25 11:57:05;;;;;;;24.10;11.38;;;4.90;99.90;;;;;;4960731;28;20103;-65
2023/11/25 11:59:59;;;;;;;16.42;9.50;;;4.90;99.90;;;;;;4962040;28;20553;-65
2023/11/25 12:02:32;;;;;;;3.00;2.30;;;4.80;99.90;;;;;;4959150;28;20042;-66
2023/11/25 12:05:01;;;;;;;7.28;3.95;;;4.90;99.90;;;;;;4950483;28;20038;-65
2023/11/25 12:07:27;;;;;;;8.25;3.75;;;4.90;99.90;;;;;;4958007;28;20035;-65
2023/11/25 12:09:57;;;;;;;3.13;2.17;;;5.00;99.90;;;;;;4964046;28;20034;-65
2023/11/25 12:12:24;;;;;;;4.68;2.50;;;5.10;99.90;;;;;;4958464;28;20043;-65
2023/11/25 12:14:50;;;;;;;7.15;2.95;;;5.10;99.90;;;;;;4964676;28;20070;-65
2023/11/25 12:17:16;;;;;;;11.90;6.35;;;5.20;99.90;;;;;;4959324;28;20031;-65
2023/11/25 12:19:43;;;;;;;8.02;3.90;;;5.30;99.90;;;;;;4963523;28;20054;-65
2023/11/25 12:22:11;;;;;;;8.65;3.45;;;5.20;99.90;;;;;;4960623;28;20113;-65
2023/11/25 12:24:39;;;;;;;4.97;2.70;;;5.30;99.90;;;;;;4962286;28;20137;-66
2023/11/25 12:27:07;;;;;;;5.80;2.10;;;5.30;99.90;;;;;;4961177;28;20034;-66
2023/11/25 12:29:35;;;;;;;5.43;2.00;;;5.30;99.90;;;;;;4962082;28;20107;-65
2023/11/25 12:32:01;;;;;;;3.55;2.28;;;5.30;99.90;;;;;;4960313;28;20306;-65
2023/11/25 12:34:30;;;;;;;2.35;1.75;;;5.30;99.90;;;;;;4961628;28;20466;-66
2023/11/25 12:36:58;;;;;;;2.05;1.27;;;5.30;99.90;;;;;;4961889;28;20084;-65
2023/11/25 12:39:24;;;;;;;3.17;1.77;;;5.30;99.90;;;;;;4961280;28;20035;-66
2023/11/25 12:41:50;;;;;;;2.42;1.90;;;5.40;99.90;;;;;;4960899;28;20534;-65
2023/11/25 12:48:05;;;;;;;2.28;1.63;;;5.50;99.90;;;;;;4943709;28;21083;-65
2023/11/25 12:50:33;;;;;;;1.88;1.40;;;5.50;99.90;;;;;;4949562;28;20031;-65
2023/11/25 12:53:05;;;;;;;3.25;1.42;;;5.50;99.90;;;;;;4960719;28;20117;-65
2023/11/25 12:55:37;;;;;;;1.63;1.48;;;5.60;99.90;;;;;;4959809;28;20042;-65
2023/11/25 12:58:13;;;;;;;1.17;1.08;;;5.60;99.90;;;;;;4960752;28;20150;-65
2023/11/25 13:00:45;;;;;;;;;;;5.60;99.90;;;;;;4959826;28;20030;-64
2023/11/25 13:03:12;;;;;;;3.00;1.30;;;5.50;99.90;;;;;;4961670;28;19914;-65
2023/11/25 13:05:38;;;;;;;1.10;1.00;;;5.50;99.90;;;;;;4959885;28;20026;-66